Pagrindinis puslapis
METAR-TAF:

METAR-TAF

Oro uostai :

Džibučio

Džibutis, Džibutis

platuma: 11-33N, ilguma: 043-10E, Aukštis: 49 m

Dabartinis oras

Ataskaita buvo paskelbta 16 valandos ir 38 minutes, ne 13:00 UTC
Vėjas 11 kt iš Rytų
Temperatūra 30°C
Drėgmė 66%
Slėgis 1012 hPa
Matomumas 10 km arba daugiau
Mažai debesys ne aukštis 2300 ft
Mažai debesys ne aukštis 2600 ft

METAR: HDAM 051300Z 09011KT 9999 FEW023 FEW026 30/23 Q1012

Laikas: 08:38 (05:38 UTC)

Prognozė

Ataskaita buvo paskelbta 12 valandos ir 38 minutes, ne 17:00 UTC
Prognozė galioja nuo 05 metu 18 UTC su 06 metu 18 UTC
Vėjas 3 kt nuo kintamojo kryptimis
Mažai debesys ne aukštis 2000 ft
Tapsmas
nuo 06 metu 00 UTC su 06 metu 06 UTC
Vėjas kt iš Šiaurės
Išsisklaidę debesys ne aukštis 2000 ft
Tapsmas
nuo 06 metu 06 UTC su 06 metu 15 UTC
Vėjas 10 kt iš Rytų
Mažai debesys ne aukštis 2000 ft

TAF: HDAM 051700Z 0518/0618 VRB03KT 9/9 FEW020 BECMG 0600/0606 00000KT SCT020 BECMG 0606/0615 08010KT FEW020

Orai ataskaitas ir orų prognozės (METAR, TAF).

turimą stotys yra geltonos ir raudonos taškus žemėlapyje.

Perkelti pele per norėdami pamatyti stoties vardą.

Tada spustelėkite, norėdami matyti oro stebėjimo ir prognozės.

Norėdami pakeisti žemėlapį: spustelėkite ant žalios mygtukų su juodo kryžiaus žemyn,; žalią mygtuką su brūkšneliu, jei norite nutolinti; arba žalių rodyklių gretimoms žemėlapius.


METAR-TAF: